sensor_id;sensor_type;location;lat;lon;timestamp;temperature;humidity
51615;DHT22;37695;52.960;6.188;2022-12-20T00:00:58;9.70;99.90
51615;DHT22;37695;52.960;6.188;2022-12-20T00:03:23;9.70;99.90
51615;DHT22;37695;52.960;6.188;2022-12-20T00:05:49;9.60;99.90
51615;DHT22;37695;52.960;6.188;2022-12-20T00:08:14;9.60;99.90
51615;DHT22;37695;52.960;6.188;2022-12-20T00:10:42;9.60;99.90
51615;DHT22;37695;52.960;6.188;2022-12-20T00:13:09;9.50;99.90
51615;DHT22;37695;52.960;6.188;2022-12-20T00:15:35;9.60;99.90
51615;DHT22;37695;52.960;6.188;2022-12-20T00:18:01;9.60;99.90
51615;DHT22;37695;52.960;6.188;2022-12-20T00:20:27;9.60;99.90
51615;DHT22;37695;52.960;6.188;2022-12-20T00:22:52;9.50;99.90
51615;DHT22;37695;52.960;6.188;2022-12-20T00:25:19;9.60;99.90
51615;DHT22;37695;52.960;6.188;2022-12-20T00:27:45;9.60;99.90
51615;DHT22;37695;52.960;6.188;2022-12-20T00:30:12;9.50;99.90
51615;DHT22;37695;52.960;6.188;2022-12-20T00:32:37;9.50;99.90
51615;DHT22;37695;52.960;6.188;2022-12-20T00:35:04;9.50;99.90
51615;DHT22;37695;52.960;6.188;2022-12-20T00:37:29;9.50;99.90
51615;DHT22;37695;52.960;6.188;2022-12-20T00:39:55;9.50;99.90
51615;DHT22;37695;52.960;6.188;2022-12-20T00:42:20;9.50;99.90
51615;DHT22;37695;52.960;6.188;2022-12-20T00:44:46;9.50;99.90
51615;DHT22;37695;52.960;6.188;2022-12-20T00:47:12;9.50;99.90
51615;DHT22;37695;52.960;6.188;2022-12-20T00:49:37;9.50;99.90
51615;DHT22;37695;52.960;6.188;2022-12-20T00:52:03;9.50;99.90
51615;DHT22;37695;52.960;6.188;2022-12-20T00:54:29;9.50;99.90
51615;DHT22;37695;52.960;6.188;2022-12-20T00:56:54;9.50;99.90
51615;DHT22;37695;52.960;6.188;2022-12-20T00:59:20;9.50;99.90
51615;DHT22;37695;52.960;6.188;2022-12-20T01:01:46;9.50;99.90
51615;DHT22;37695;52.960;6.188;2022-12-20T01:04:12;9.50;99.90
51615;DHT22;37695;52.960;6.188;2022-12-20T01:06:38;9.50;99.90
51615;DHT22;37695;52.960;6.188;2022-12-20T01:09:04;9.60;99.90
51615;DHT22;37695;52.960;6.188;2022-12-20T01:11:31;9.50;99.90
51615;DHT22;37695;52.960;6.188;2022-12-20T01:13:59;9.50;99.90
51615;DHT22;37695;52.960;6.188;2022-12-20T01:16:28;9.50;99.90
51615;DHT22;37695;52.960;6.188;2022-12-20T01:18:54;9.50;99.90
51615;DHT22;37695;52.960;6.188;2022-12-20T01:21:23;9.50;99.90
51615;DHT22;37695;52.960;6.188;2022-12-20T01:23:49;9.60;99.90
51615;DHT22;37695;52.960;6.188;2022-12-20T01:26:17;9.50;99.90
51615;DHT22;37695;52.960;6.188;2022-12-20T01:28:44;9.50;99.90
51615;DHT22;37695;52.960;6.188;2022-12-20T01:31:17;9.50;99.90
51615;DHT22;37695;52.960;6.188;2022-12-20T01:33:44;9.60;99.90
51615;DHT22;37695;52.960;6.188;2022-12-20T01:36:13;9.60;99.90
51615;DHT22;37695;52.960;6.188;2022-12-20T01:38:40;9.50;99.90
51615;DHT22;37695;52.960;6.188;2022-12-20T01:41:05;9.50;99.90
51615;DHT22;37695;52.960;6.188;2022-12-20T01:46:18;9.40;99.90
51615;DHT22;37695;52.960;6.188;2022-12-20T01:48:51;9.40;99.90
51615;DHT22;37695;52.960;6.188;2022-12-20T01:51:18;9.40;99.90
51615;DHT22;37695;52.960;6.188;2022-12-20T01:53:45;9.30;99.90
51615;DHT22;37695;52.960;6.188;2022-12-20T01:56:11;9.30;99.90
51615;DHT22;37695;52.960;6.188;2022-12-20T01:58:38;9.30;99.90
51615;DHT22;37695;52.960;6.188;2022-12-20T02:01:04;9.30;99.90
51615;DHT22;37695;52.960;6.188;2022-12-20T02:03:31;9.40;99.90
51615;DHT22;37695;52.960;6.188;2022-12-20T02:05:57;9.40;99.90
51615;DHT22;37695;52.960;6.188;2022-12-20T02:08:31;9.30;99.90
51615;DHT22;37695;52.960;6.188;2022-12-20T02:11:21;9.30;99.90
51615;DHT22;37695;52.960;6.188;2022-12-20T02:16:27;9.30;99.90
51615;DHT22;37695;52.960;6.188;2022-12-20T02:19:03;9.30;99.90
51615;DHT22;37695;52.960;6.188;2022-12-20T02:21:47;9.30;99.90
51615;DHT22;37695;52.960;6.188;2022-12-20T02:24:32;9.30;99.90
51615;DHT22;37695;52.960;6.188;2022-12-20T02:32:08;9.50;99.90
51615;DHT22;37695;52.960;6.188;2022-12-20T02:34:38;9.50;99.90
51615;DHT22;37695;52.960;6.188;2022-12-20T02:37:04;9.50;99.90
51615;DHT22;37695;52.960;6.188;2022-12-20T02:39:30;9.50;99.90
51615;DHT22;37695;52.960;6.188;2022-12-20T02:42:01;9.50;99.90
51615;DHT22;37695;52.960;6.188;2022-12-20T02:44:31;9.60;99.90
51615;DHT22;37695;52.960;6.188;2022-12-20T02:47:21;9.60;99.90
51615;DHT22;37695;52.960;6.188;2022-12-20T02:49:49;9.60;99.90
51615;DHT22;37695;52.960;6.188;2022-12-20T02:52:17;9.60;99.90
51615;DHT22;37695;52.960;6.188;2022-12-20T02:54:45;9.50;99.90
51615;DHT22;37695;52.960;6.188;2022-12-20T02:57:21;9.50;99.90
51615;DHT22;37695;52.960;6.188;2022-12-20T03:00:03;9.50;99.90
51615;DHT22;37695;52.960;6.188;2022-12-20T03:02:29;9.50;99.90
51615;DHT22;37695;52.960;6.188;2022-12-20T03:05:16;9.40;99.90
51615;DHT22;37695;52.960;6.188;2022-12-20T03:07:42;9.40;99.90
51615;DHT22;37695;52.960;6.188;2022-12-20T03:10:08;9.40;99.90
51615;DHT22;37695;52.960;6.188;2022-12-20T03:12:34;9.40;99.90
51615;DHT22;37695;52.960;6.188;2022-12-20T03:15:00;9.40;99.90
51615;DHT22;37695;52.960;6.188;2022-12-20T03:17:25;9.40;99.90
51615;DHT22;37695;52.960;6.188;2022-12-20T03:19:51;9.40;99.90
51615;DHT22;37695;52.960;6.188;2022-12-20T03:22:16;9.40;99.90
51615;DHT22;37695;52.960;6.188;2022-12-20T03:24:42;9.40;99.90
51615;DHT22;37695;52.960;6.188;2022-12-20T03:27:07;9.40;99.90
51615;DHT22;37695;52.960;6.188;2022-12-20T03:29:33;9.40;99.90
51615;DHT22;37695;52.960;6.188;2022-12-20T03:31:59;9.40;99.90
51615;DHT22;37695;52.960;6.188;2022-12-20T03:34:24;9.40;99.90
51615;DHT22;37695;52.960;6.188;2022-12-20T03:36:50;10.20;99.90
51615;DHT22;37695;52.960;6.188;2022-12-20T03:39:15;9.40;99.90
51615;DHT22;37695;52.960;6.188;2022-12-20T03:41:41;9.40;99.90
51615;DHT22;37695;52.960;6.188;2022-12-20T03:44:07;9.40;99.90
51615;DHT22;37695;52.960;6.188;2022-12-20T03:46:32;9.40;99.90
51615;DHT22;37695;52.960;6.188;2022-12-20T03:48:58;9.40;99.90
51615;DHT22;37695;52.960;6.188;2022-12-20T03:51:23;9.40;99.90
51615;DHT22;37695;52.960;6.188;2022-12-20T03:53:49;9.40;99.90
51615;DHT22;37695;52.960;6.188;2022-12-20T03:56:15;9.50;99.90
51615;DHT22;37695;52.960;6.188;2022-12-20T03:58:41;9.50;99.90
51615;DHT22;37695;52.960;6.188;2022-12-20T04:01:17;9.50;99.90
51615;DHT22;37695;52.960;6.188;2022-12-20T04:03:43;9.60;99.90
51615;DHT22;37695;52.960;6.188;2022-12-20T04:06:09;9.60;99.90
51615;DHT22;37695;52.960;6.188;2022-12-20T04:08:34;9.60;99.90
51615;DHT22;37695;52.960;6.188;2022-12-20T04:11:00;9.60;99.90
51615;DHT22;37695;52.960;6.188;2022-12-20T04:13:41;9.60;99.90
51615;DHT22;37695;52.960;6.188;2022-12-20T04:16:06;9.60;99.90
51615;DHT22;37695;52.960;6.188;2022-12-20T04:18:32;9.60;99.90
51615;DHT22;37695;52.960;6.188;2022-12-20T04:20:59;9.60;99.90
51615;DHT22;37695;52.960;6.188;2022-12-20T04:23:25;9.60;99.90
51615;DHT22;37695;52.960;6.188;2022-12-20T04:25:51;9.70;99.90
51615;DHT22;37695;52.960;6.188;2022-12-20T04:28:16;9.60;99.90
51615;DHT22;37695;52.960;6.188;2022-12-20T04:30:42;9.60;99.90
51615;DHT22;37695;52.960;6.188;2022-12-20T04:33:07;9.70;99.90
51615;DHT22;37695;52.960;6.188;2022-12-20T04:35:33;9.60;99.90
51615;DHT22;37695;52.960;6.188;2022-12-20T04:37:59;9.70;99.90
51615;DHT22;37695;52.960;6.188;2022-12-20T04:40:24;9.70;99.90
51615;DHT22;37695;52.960;6.188;2022-12-20T04:42:50;9.70;99.90
51615;DHT22;37695;52.960;6.188;2022-12-20T04:45:15;9.70;99.90
51615;DHT22;37695;52.960;6.188;2022-12-20T04:47:41;9.70;99.90
51615;DHT22;37695;52.960;6.188;2022-12-20T04:50:07;9.80;99.90
51615;DHT22;37695;52.960;6.188;2022-12-20T04:52:32;9.80;99.90
51615;DHT22;37695;52.960;6.188;2022-12-20T04:55:17;9.80;99.90
51615;DHT22;37695;52.960;6.188;2022-12-20T04:57:42;9.80;99.90
51615;DHT22;37695;52.960;6.188;2022-12-20T05:00:08;9.80;99.90
51615;DHT22;37695;52.960;6.188;2022-12-20T05:02:34;9.80;99.90
51615;DHT22;37695;52.960;6.188;2022-12-20T05:04:59;9.80;99.90
51615;DHT22;37695;52.960;6.188;2022-12-20T05:07:25;9.80;99.90
51615;DHT22;37695;52.960;6.188;2022-12-20T05:09:51;9.90;99.90
51615;DHT22;37695;52.960;6.188;2022-12-20T05:12:16;9.90;99.90
51615;DHT22;37695;52.960;6.188;2022-12-20T05:14:42;9.90;99.90
51615;DHT22;37695;52.960;6.188;2022-12-20T05:17:07;9.90;99.90
51615;DHT22;37695;52.960;6.188;2022-12-20T05:19:34;9.90;99.90
51615;DHT22;37695;52.960;6.188;2022-12-20T05:21:59;9.90;99.90
51615;DHT22;37695;52.960;6.188;2022-12-20T05:24:43;9.90;99.90
51615;DHT22;37695;52.960;6.188;2022-12-20T05:27:27;9.90;99.90
51615;DHT22;37695;52.960;6.188;2022-12-20T05:29:54;10.00;99.90
51615;DHT22;37695;52.960;6.188;2022-12-20T05:32:20;10.00;99.90
51615;DHT22;37695;52.960;6.188;2022-12-20T05:34:45;9.90;99.90
51615;DHT22;37695;52.960;6.188;2022-12-20T05:37:11;10.00;99.90
51615;DHT22;37695;52.960;6.188;2022-12-20T05:39:37;10.00;99.90
51615;DHT22;37695;52.960;6.188;2022-12-20T05:42:02;10.00;99.90
51615;DHT22;37695;52.960;6.188;2022-12-20T05:44:28;9.90;99.90
51615;DHT22;37695;52.960;6.188;2022-12-20T05:46:53;9.90;99.90
51615;DHT22;37695;52.960;6.188;2022-12-20T05:49:19;10.00;99.90
51615;DHT22;37695;52.960;6.188;2022-12-20T05:51:44;9.90;99.90
51615;DHT22;37695;52.960;6.188;2022-12-20T05:54:10;10.00;99.90
51615;DHT22;37695;52.960;6.188;2022-12-20T05:56:35;10.00;99.90
51615;DHT22;37695;52.960;6.188;2022-12-20T05:59:01;10.00;99.90
51615;DHT22;37695;52.960;6.188;2022-12-20T06:01:26;10.00;99.90
51615;DHT22;37695;52.960;6.188;2022-12-20T06:03:52;10.00;99.90
51615;DHT22;37695;52.960;6.188;2022-12-20T06:06:17;10.10;99.90
51615;DHT22;37695;52.960;6.188;2022-12-20T06:08:43;10.10;99.90
51615;DHT22;37695;52.960;6.188;2022-12-20T06:11:09;10.10;99.90
51615;DHT22;37695;52.960;6.188;2022-12-20T06:13:35;10.10;99.90
51615;DHT22;37695;52.960;6.188;2022-12-20T06:16:00;10.10;99.90
51615;DHT22;37695;52.960;6.188;2022-12-20T06:18:26;10.20;99.90
51615;DHT22;37695;52.960;6.188;2022-12-20T06:20:52;10.10;99.90
51615;DHT22;37695;52.960;6.188;2022-12-20T06:23:18;10.20;99.90
51615;DHT22;37695;52.960;6.188;2022-12-20T06:25:45;10.10;99.90
51615;DHT22;37695;52.960;6.188;2022-12-20T06:28:10;10.10;99.90
51615;DHT22;37695;52.960;6.188;2022-12-20T06:30:36;10.10;99.90
51615;DHT22;37695;52.960;6.188;2022-12-20T06:33:02;10.10;99.90
51615;DHT22;37695;52.960;6.188;2022-12-20T06:35:28;10.10;99.90
51615;DHT22;37695;52.960;6.188;2022-12-20T06:37:54;10.10;99.90
51615;DHT22;37695;52.960;6.188;2022-12-20T06:40:19;10.10;99.90
51615;DHT22;37695;52.960;6.188;2022-12-20T06:42:45;10.00;99.90
51615;DHT22;37695;52.960;6.188;2022-12-20T06:45:13;10.00;99.90
51615;DHT22;37695;52.960;6.188;2022-12-20T06:47:39;9.90;99.90
51615;DHT22;37695;52.960;6.188;2022-12-20T06:50:05;9.90;99.90
51615;DHT22;37695;52.960;6.188;2022-12-20T06:52:31;9.90;99.90
51615;DHT22;37695;52.960;6.188;2022-12-20T06:54:57;9.80;99.90
51615;DHT22;37695;52.960;6.188;2022-12-20T06:57:22;9.90;99.90
51615;DHT22;37695;52.960;6.188;2022-12-20T06:59:48;9.80;99.90
51615;DHT22;37695;52.960;6.188;2022-12-20T07:02:13;9.80;99.90
51615;DHT22;37695;52.960;6.188;2022-12-20T07:04:39;9.80;99.90
51615;DHT22;37695;52.960;6.188;2022-12-20T07:07:05;9.80;99.90
51615;DHT22;37695;52.960;6.188;2022-12-20T07:09:31;9.80;99.90
51615;DHT22;37695;52.960;6.188;2022-12-20T07:11:56;9.80;99.90
51615;DHT22;37695;52.960;6.188;2022-12-20T07:14:22;9.70;99.90
51615;DHT22;37695;52.960;6.188;2022-12-20T07:16:48;9.70;99.90
51615;DHT22;37695;52.960;6.188;2022-12-20T07:19:14;9.70;99.90
51615;DHT22;37695;52.960;6.188;2022-12-20T07:21:41;9.70;99.90
51615;DHT22;37695;52.960;6.188;2022-12-20T07:24:07;9.70;99.90
51615;DHT22;37695;52.960;6.188;2022-12-20T07:26:33;9.70;99.90
51615;DHT22;37695;52.960;6.188;2022-12-20T07:28:59;9.70;99.90
51615;DHT22;37695;52.960;6.188;2022-12-20T07:31:24;9.70;99.90
51615;DHT22;37695;52.960;6.188;2022-12-20T07:33:50;9.70;99.90
51615;DHT22;37695;52.960;6.188;2022-12-20T07:36:15;9.80;99.90
51615;DHT22;37695;52.960;6.188;2022-12-20T07:38:41;9.80;99.90
51615;DHT22;37695;52.960;6.188;2022-12-20T07:41:08;9.90;99.90
51615;DHT22;37695;52.960;6.188;2022-12-20T07:43:34;9.80;99.90
51615;DHT22;37695;52.960;6.188;2022-12-20T07:46:00;9.90;99.90
51615;DHT22;37695;52.960;6.188;2022-12-20T07:48:26;9.90;99.90
51615;DHT22;37695;52.960;6.188;2022-12-20T07:50:54;9.90;99.90
51615;DHT22;37695;52.960;6.188;2022-12-20T07:53:23;9.90;99.90
51615;DHT22;37695;52.960;6.188;2022-12-20T07:55:49;9.90;99.90
51615;DHT22;37695;52.960;6.188;2022-12-20T07:58:17;9.90;99.90
51615;DHT22;37695;52.960;6.188;2022-12-20T08:00:44;9.80;99.90
51615;DHT22;37695;52.960;6.188;2022-12-20T08:03:17;9.80;99.90
51615;DHT22;37695;52.960;6.188;2022-12-20T08:05:47;9.80;99.90
51615;DHT22;37695;52.960;6.188;2022-12-20T08:08:14;9.80;99.90
51615;DHT22;37695;52.960;6.188;2022-12-20T08:10:40;9.90;99.90
51615;DHT22;37695;52.960;6.188;2022-12-20T08:13:06;9.90;99.90
51615;DHT22;37695;52.960;6.188;2022-12-20T08:15:33;9.80;99.90
51615;DHT22;37695;52.960;6.188;2022-12-20T08:17:59;9.90;99.90
51615;DHT22;37695;52.960;6.188;2022-12-20T08:20:25;9.90;99.90
51615;DHT22;37695;52.960;6.188;2022-12-20T08:22:51;9.90;99.90
51615;DHT22;37695;52.960;6.188;2022-12-20T08:25:16;9.90;99.90
51615;DHT22;37695;52.960;6.188;2022-12-20T08:27:42;9.90;99.90
51615;DHT22;37695;52.960;6.188;2022-12-20T08:30:08;9.90;99.90
51615;DHT22;37695;52.960;6.188;2022-12-20T08:32:35;9.90;99.90
51615;DHT22;37695;52.960;6.188;2022-12-20T08:35:01;9.90;99.90
51615;DHT22;37695;52.960;6.188;2022-12-20T08:37:26;9.90;99.90
51615;DHT22;37695;52.960;6.188;2022-12-20T08:39:52;9.90;99.90
51615;DHT22;37695;52.960;6.188;2022-12-20T08:42:17;10.00;99.90
51615;DHT22;37695;52.960;6.188;2022-12-20T08:44:43;10.00;99.90
51615;DHT22;37695;52.960;6.188;2022-12-20T08:47:09;10.00;99.90
51615;DHT22;37695;52.960;6.188;2022-12-20T08:49:35;10.00;99.90
51615;DHT22;37695;52.960;6.188;2022-12-20T08:52:00;10.00;99.90
51615;DHT22;37695;52.960;6.188;2022-12-20T08:54:26;10.00;99.90
51615;DHT22;37695;52.960;6.188;2022-12-20T08:56:52;10.00;99.90
51615;DHT22;37695;52.960;6.188;2022-12-20T08:59:17;10.00;99.90
51615;DHT22;37695;52.960;6.188;2022-12-20T09:01:43;10.10;99.90
51615;DHT22;37695;52.960;6.188;2022-12-20T09:04:10;10.10;99.90
51615;DHT22;37695;52.960;6.188;2022-12-20T09:06:36;10.10;99.90
51615;DHT22;37695;52.960;6.188;2022-12-20T09:09:03;10.10;99.90
51615;DHT22;37695;52.960;6.188;2022-12-20T09:11:28;10.10;99.90
51615;DHT22;37695;52.960;6.188;2022-12-20T09:13:56;10.10;99.90
51615;DHT22;37695;52.960;6.188;2022-12-20T09:16:24;10.10;99.90
51615;DHT22;37695;52.960;6.188;2022-12-20T09:18:52;10.20;99.90
51615;DHT22;37695;52.960;6.188;2022-12-20T09:21:19;10.20;99.90
51615;DHT22;37695;52.960;6.188;2022-12-20T09:23:45;10.20;99.90
51615;DHT22;37695;52.960;6.188;2022-12-20T09:26:12;10.20;99.90
51615;DHT22;37695;52.960;6.188;2022-12-20T09:28:39;10.20;99.90
51615;DHT22;37695;52.960;6.188;2022-12-20T09:31:07;10.30;99.90
51615;DHT22;37695;52.960;6.188;2022-12-20T09:33:33;10.30;99.90
51615;DHT22;37695;52.960;6.188;2022-12-20T09:36:00;10.30;99.90
51615;DHT22;37695;52.960;6.188;2022-12-20T09:38:26;10.30;99.90
51615;DHT22;37695;52.960;6.188;2022-12-20T09:40:55;10.40;99.90
51615;DHT22;37695;52.960;6.188;2022-12-20T09:43:21;10.40;99.90
51615;DHT22;37695;52.960;6.188;2022-12-20T09:45:52;10.40;99.90
51615;DHT22;37695;52.960;6.188;2022-12-20T09:48:20;10.50;99.90
51615;DHT22;37695;52.960;6.188;2022-12-20T09:59:19;10.50;99.90
51615;DHT22;37695;52.960;6.188;2022-12-20T10:01:47;10.50;99.90
51615;DHT22;37695;52.960;6.188;2022-12-20T10:04:23;10.50;99.90
51615;DHT22;37695;52.960;6.188;2022-12-20T10:14:55;10.60;99.90
51615;DHT22;37695;52.960;6.188;2022-12-20T10:17:49;10.60;99.90
51615;DHT22;37695;52.960;6.188;2022-12-20T10:23:27;10.70;99.90
51615;DHT22;37695;52.960;6.188;2022-12-20T10:25:55;10.70;99.90
51615;DHT22;37695;52.960;6.188;2022-12-20T10:28:27;10.70;99.90
51615;DHT22;37695;52.960;6.188;2022-12-20T10:30:53;10.70;99.90
51615;DHT22;37695;52.960;6.188;2022-12-20T10:33:23;10.70;99.90
51615;DHT22;37695;52.960;6.188;2022-12-20T10:35:49;10.80;99.90
51615;DHT22;37695;52.960;6.188;2022-12-20T10:38:16;10.80;99.90
51615;DHT22;37695;52.960;6.188;2022-12-20T10:41:02;10.80;99.90
51615;DHT22;37695;52.960;6.188;2022-12-20T10:43:43;10.90;99.90
51615;DHT22;37695;52.960;6.188;2022-12-20T10:46:11;10.80;99.90
51615;DHT22;37695;52.960;6.188;2022-12-20T10:48:39;10.90;99.90
51615;DHT22;37695;52.960;6.188;2022-12-20T10:54:19;10.90;99.90
51615;DHT22;37695;52.960;6.188;2022-12-20T10:56:55;10.80;99.90
51615;DHT22;37695;52.960;6.188;2022-12-20T10:59:33;10.80;99.90
51615;DHT22;37695;52.960;6.188;2022-12-20T11:02:02;10.80;99.90
51615;DHT22;37695;52.960;6.188;2022-12-20T11:04:35;10.70;99.90
51615;DHT22;37695;52.960;6.188;2022-12-20T11:07:24;10.70;99.90
51615;DHT22;37695;52.960;6.188;2022-12-20T11:09:54;10.70;99.90
51615;DHT22;37695;52.960;6.188;2022-12-20T11:12:20;10.70;99.90
51615;DHT22;37695;52.960;6.188;2022-12-20T11:14:46;10.70;99.90
51615;DHT22;37695;52.960;6.188;2022-12-20T11:28:09;10.70;99.90
51615;DHT22;37695;52.960;6.188;2022-12-20T11:31:19;10.70;99.90
51615;DHT22;37695;52.960;6.188;2022-12-20T11:34:12;10.70;99.90
51615;DHT22;37695;52.960;6.188;2022-12-20T11:36:50;10.70;99.90
51615;DHT22;37695;52.960;6.188;2022-12-20T11:42:41;10.70;99.90
51615;DHT22;37695;52.960;6.188;2022-12-20T11:53:39;10.70;99.90
51615;DHT22;37695;52.960;6.188;2022-12-20T11:56:18;10.60;99.90
51615;DHT22;37695;52.960;6.188;2022-12-20T11:59:02;10.60;99.90
51615;DHT22;37695;52.960;6.188;2022-12-20T12:01:35;10.60;99.90
51615;DHT22;37695;52.960;6.188;2022-12-20T12:05:15;10.60;99.90
51615;DHT22;37695;52.960;6.188;2022-12-20T12:07:34;10.60;99.90
51615;DHT22;37695;52.960;6.188;2022-12-20T12:10:43;10.60;99.90
51615;DHT22;37695;52.960;6.188;2022-12-20T12:12:59;10.60;99.90
51615;DHT22;37695;52.960;6.188;2022-12-20T12:18:26;10.50;99.90
51615;DHT22;37695;52.960;6.188;2022-12-20T12:26:20;10.50;99.90
51615;DHT22;37695;52.960;6.188;2022-12-20T12:28:53;10.60;99.90
51615;DHT22;37695;52.960;6.188;2022-12-20T12:31:25;10.60;99.90
51615;DHT22;37695;52.960;6.188;2022-12-20T12:47:04;10.60;99.90
51615;DHT22;37695;52.960;6.188;2022-12-20T12:49:31;10.60;99.90
51615;DHT22;37695;52.960;6.188;2022-12-20T12:52:00;10.60;99.90
51615;DHT22;37695;52.960;6.188;2022-12-20T12:54:34;10.60;99.90
51615;DHT22;37695;52.960;6.188;2022-12-20T12:57:13;10.60;99.90
51615;DHT22;37695;52.960;6.188;2022-12-20T12:59:45;10.60;99.90
51615;DHT22;37695;52.960;6.188;2022-12-20T13:04:59;10.70;99.90
51615;DHT22;37695;52.960;6.188;2022-12-20T13:09:57;10.70;99.90
51615;DHT22;37695;52.960;6.188;2022-12-20T13:15:01;10.70;99.90
51615;DHT22;37695;52.960;6.188;2022-12-20T13:19:54;10.80;99.90
51615;DHT22;37695;52.960;6.188;2022-12-20T13:22:24;10.70;99.90
51615;DHT22;37695;52.960;6.188;2022-12-20T13:24:58;10.70;99.90
51615;DHT22;37695;52.960;6.188;2022-12-20T13:27:39;10.70;99.90
51615;DHT22;37695;52.960;6.188;2022-12-20T13:40:39;10.80;99.90
51615;DHT22;37695;52.960;6.188;2022-12-20T13:49:00;10.70;99.90
51615;DHT22;37695;52.960;6.188;2022-12-20T13:51:28;10.70;99.90
51615;DHT22;37695;52.960;6.188;2022-12-20T13:53:59;10.70;99.90
51615;DHT22;37695;52.960;6.188;2022-12-20T13:58:53;10.70;99.90
51615;DHT22;37695;52.960;6.188;2022-12-20T14:01:22;10.70;99.90
51615;DHT22;37695;52.960;6.188;2022-12-20T14:03:48;10.70;99.90
51615;DHT22;37695;52.960;6.188;2022-12-20T14:06:14;10.70;99.90
51615;DHT22;37695;52.960;6.188;2022-12-20T14:08:51;10.70;99.90
51615;DHT22;37695;52.960;6.188;2022-12-20T14:11:25;10.80;99.90
51615;DHT22;37695;52.960;6.188;2022-12-20T14:13:59;10.70;99.90
51615;DHT22;37695;52.960;6.188;2022-12-20T14:16:27;10.70;99.90
51615;DHT22;37695;52.960;6.188;2022-12-20T14:21:23;10.80;99.90
51615;DHT22;37695;52.960;6.188;2022-12-20T14:23:50;10.70;99.90
51615;DHT22;37695;52.960;6.188;2022-12-20T14:26:27;10.70;99.90
51615;DHT22;37695;52.960;6.188;2022-12-20T14:28:56;10.80;99.90
51615;DHT22;37695;52.960;6.188;2022-12-20T14:36:39;10.70;99.90
51615;DHT22;37695;52.960;6.188;2022-12-20T14:41:57;10.70;99.90
51615;DHT22;37695;52.960;6.188;2022-12-20T14:44:25;10.70;99.90
51615;DHT22;37695;52.960;6.188;2022-12-20T14:46:53;10.70;99.90
51615;DHT22;37695;52.960;6.188;2022-12-20T14:49:27;10.80;99.90
51615;DHT22;37695;52.960;6.188;2022-12-20T14:52:16;10.70;99.90
51615;DHT22;37695;52.960;6.188;2022-12-20T14:54:56;10.80;99.90
51615;DHT22;37695;52.960;6.188;2022-12-20T15:05:36;10.70;99.90
51615;DHT22;37695;52.960;6.188;2022-12-20T15:13:40;10.70;99.90
51615;DHT22;37695;52.960;6.188;2022-12-20T15:16:15;10.70;99.90
51615;DHT22;37695;52.960;6.188;2022-12-20T15:18:41;10.70;99.90
51615;DHT22;37695;52.960;6.188;2022-12-20T15:21:13;10.70;99.90
51615;DHT22;37695;52.960;6.188;2022-12-20T15:23:52;10.70;99.90
51615;DHT22;37695;52.960;6.188;2022-12-20T15:26:20;10.70;99.90
51615;DHT22;37695;52.960;6.188;2022-12-20T15:28:47;10.70;99.90
51615;DHT22;37695;52.960;6.188;2022-12-20T15:31:15;10.60;99.90
51615;DHT22;37695;52.960;6.188;2022-12-20T15:33:42;10.70;99.90
51615;DHT22;37695;52.960;6.188;2022-12-20T15:36:20;10.70;99.90
51615;DHT22;37695;52.960;6.188;2022-12-20T15:38:46;10.70;99.90
51615;DHT22;37695;52.960;6.188;2022-12-20T15:41:29;10.70;99.90
51615;DHT22;37695;52.960;6.188;2022-12-20T15:43:57;10.70;99.90
51615;DHT22;37695;52.960;6.188;2022-12-20T15:46:24;10.70;99.90
51615;DHT22;37695;52.960;6.188;2022-12-20T15:48:50;10.70;99.90
51615;DHT22;37695;52.960;6.188;2022-12-20T15:53:51;10.70;99.90
51615;DHT22;37695;52.960;6.188;2022-12-20T15:56:19;10.70;99.90
51615;DHT22;37695;52.960;6.188;2022-12-20T15:58:46;10.70;99.90
51615;DHT22;37695;52.960;6.188;2022-12-20T16:01:17;10.70;99.90
51615;DHT22;37695;52.960;6.188;2022-12-20T16:03:43;10.60;99.90
51615;DHT22;37695;52.960;6.188;2022-12-20T16:06:12;10.60;99.90
51615;DHT22;37695;52.960;6.188;2022-12-20T16:08:38;10.60;99.90
51615;DHT22;37695;52.960;6.188;2022-12-20T16:11:19;10.60;99.90
51615;DHT22;37695;52.960;6.188;2022-12-20T16:13:45;10.60;99.90
51615;DHT22;37695;52.960;6.188;2022-12-20T16:16:20;10.60;99.90
51615;DHT22;37695;52.960;6.188;2022-12-20T16:18:47;10.60;99.90
51615;DHT22;37695;52.960;6.188;2022-12-20T16:21:20;10.60;99.90
51615;DHT22;37695;52.960;6.188;2022-12-20T16:23:47;10.60;99.90
51615;DHT22;37695;52.960;6.188;2022-12-20T16:26:16;10.60;99.90
51615;DHT22;37695;52.960;6.188;2022-12-20T16:28:44;10.60;99.90
51615;DHT22;37695;52.960;6.188;2022-12-20T16:31:27;9.90;99.90
51615;DHT22;37695;52.960;6.188;2022-12-20T16:33:53;10.60;99.90
51615;DHT22;37695;52.960;6.188;2022-12-20T16:36:20;10.60;99.90
51615;DHT22;37695;52.960;6.188;2022-12-20T16:38:47;11.10;99.90
51615;DHT22;37695;52.960;6.188;2022-12-20T16:41:15;10.60;99.90
51615;DHT22;37695;52.960;6.188;2022-12-20T16:43:42;10.50;99.90
51615;DHT22;37695;52.960;6.188;2022-12-20T16:46:19;10.60;99.90
51615;DHT22;37695;52.960;6.188;2022-12-20T16:48:45;10.00;99.90
51615;DHT22;37695;52.960;6.188;2022-12-20T16:51:34;10.60;99.90
51615;DHT22;37695;52.960;6.188;2022-12-20T16:54:12;10.60;99.90
51615;DHT22;37695;52.960;6.188;2022-12-20T16:56:38;10.50;99.90
51615;DHT22;37695;52.960;6.188;2022-12-20T16:59:05;10.60;99.90
51615;DHT22;37695;52.960;6.188;2022-12-20T17:01:33;10.60;99.90
51615;DHT22;37695;52.960;6.188;2022-12-20T17:04:00;9.70;99.90
51615;DHT22;37695;52.960;6.188;2022-12-20T17:06:25;10.60;99.90
51615;DHT22;37695;52.960;6.188;2022-12-20T17:08:51;10.60;99.90
51615;DHT22;37695;52.960;6.188;2022-12-20T17:11:22;9.70;99.90
51615;DHT22;37695;52.960;6.188;2022-12-20T17:13:50;11.20;99.90
51615;DHT22;37695;52.960;6.188;2022-12-20T17:16:17;10.10;99.90
51615;DHT22;37695;52.960;6.188;2022-12-20T17:18:51;10.60;99.90
51615;DHT22;37695;52.960;6.188;2022-12-20T17:21:35;10.60;99.90
51615;DHT22;37695;52.960;6.188;2022-12-20T17:24:02;10.50;99.90
51615;DHT22;37695;52.960;6.188;2022-12-20T17:26:29;10.50;99.90
51615;DHT22;37695;52.960;6.188;2022-12-20T17:28:56;10.30;99.90
51615;DHT22;37695;52.960;6.188;2022-12-20T17:31:33;11.20;99.90
51615;DHT22;37695;52.960;6.188;2022-12-20T17:34:27;10.50;99.90
51615;DHT22;37695;52.960;6.188;2022-12-20T17:36:54;10.50;99.90
51615;DHT22;37695;52.960;6.188;2022-12-20T17:39:20;10.50;99.90
51615;DHT22;37695;52.960;6.188;2022-12-20T17:41:47;10.50;99.90
51615;DHT22;37695;52.960;6.188;2022-12-20T17:46:43;10.80;99.90
51615;DHT22;37695;52.960;6.188;2022-12-20T17:49:10;10.50;99.90
51615;DHT22;37695;52.960;6.188;2022-12-20T17:51:37;10.50;99.90
51615;DHT22;37695;52.960;6.188;2022-12-20T17:54:04;10.50;99.90
51615;DHT22;37695;52.960;6.188;2022-12-20T17:56:32;10.50;99.90
51615;DHT22;37695;52.960;6.188;2022-12-20T17:58:59;10.50;99.90
51615;DHT22;37695;52.960;6.188;2022-12-20T18:01:30;10.60;99.90
51615;DHT22;37695;52.960;6.188;2022-12-20T18:03:57;10.50;99.90